Time;durP1;ratioP1;P1;durP2;ratioP2;P2;SDS_P1;SDS_P2;PMS_P1;PMS_P2;Temp;Humidity;BMP_temperature;BMP_pressure;BME280_temperature;BME280_humidity;BME280_pressure;Samples;Min_cycle;Max_cycle;Signal;HPM_P1;HPM_P2
2021/03/31 00:01:01;;;;;;;32.25;17.73;;;;;;;;;;5018103;28;20464;-78
2021/03/31 00:03:28;;;;;;;25.58;16.33;;;;;;;;;;5019741;28;20084;-78
2021/03/31 00:05:54;;;;;;;26.88;16.60;;;;;;;;;;5023054;28;20097;-78
2021/03/31 00:08:20;;;;;;;25.15;14.75;;;;;;;;;;5016477;28;20461;-78
2021/03/31 00:10:49;;;;;;;25.92;15.30;;;;;;;;;;5023487;28;20044;-78
2021/03/31 00:13:16;;;;;;;21.05;13.63;;;;;;;;;;5018754;28;21631;-78
2021/03/31 00:15:43;;;;;;;24.05;15.88;;;;;;;;;;5020972;28;20535;-78
2021/03/31 00:18:10;;;;;;;26.95;15.45;;;;;;;;;;5023015;28;20064;-78
2021/03/31 00:20:37;;;;;;;27.27;15.38;;;;;;;;;;5018616;28;20083;-78
2021/03/31 00:23:05;;;;;;;23.77;15.55;;;;;;;;;;5016183;28;20082;-77
2021/03/31 00:25:31;;;;;;;25.65;15.65;;;;;;;;;;5021529;28;20037;-78
2021/03/31 00:27:58;;;;;;;20.85;14.60;;;;;;;;;;5022449;28;20160;-78
2021/03/31 00:30:25;;;;;;;25.77;15.60;;;;;;;;;;5020857;28;20465;-78
2021/03/31 00:32:51;;;;;;;22.85;14.43;;;;;;;;;;5014113;28;20088;-78
2021/03/31 00:35:17;;;;;;;24.70;14.85;;;;;;;;;;5022646;28;20116;-78
2021/03/31 00:37:44;;;;;;;26.20;14.85;;;;;;;;;;5017817;28;20045;-78
2021/03/31 00:40:13;;;;;;;24.83;15.13;;;;;;;;;;5016845;28;20148;-78
2021/03/31 00:42:39;;;;;;;20.85;14.82;;;;;;;;;;5016665;28;20057;-78
2021/03/31 00:45:07;;;;;;;25.05;16.30;;;;;;;;;;5020144;28;20060;-78
2021/03/31 00:47:35;;;;;;;23.90;14.68;;;;;;;;;;5013990;28;20144;-78
2021/03/31 00:50:02;;;;;;;25.02;14.43;;;;;;;;;;5015435;28;20393;-77
2021/03/31 00:52:29;;;;;;;23.67;14.35;;;;;;;;;;5018432;28;20049;-78
2021/03/31 00:54:55;;;;;;;24.60;15.43;;;;;;;;;;5015664;28;20140;-78
2021/03/31 00:57:22;;;;;;;26.17;14.70;;;;;;;;;;5020580;28;20061;-78
2021/03/31 00:59:48;;;;;;;21.08;13.13;;;;;;;;;;5017557;28;20095;-78
2021/03/31 01:02:14;;;;;;;22.70;13.55;;;;;;;;;;5018038;28;20096;-78
2021/03/31 01:04:41;;;;;;;19.67;13.25;;;;;;;;;;5018891;28;20270;-77
2021/03/31 01:07:07;;;;;;;22.60;12.95;;;;;;;;;;5021262;28;20045;-78
2021/03/31 01:09:34;;;;;;;21.60;13.25;;;;;;;;;;5016553;28;20047;-78
2021/03/31 01:12:07;;;;;;;21.55;12.73;;;;;;;;;;5023188;28;20504;-77
2021/03/31 01:14:50;;;;;;;20.67;12.85;;;;;;;;;;5007951;28;20069;-78
2021/03/31 01:17:20;;;;;;;18.30;11.75;;;;;;;;;;5019265;28;20046;-78
2021/03/31 01:20:05;;;;;;;19.90;12.10;;;;;;;;;;5023086;28;20044;-78
2021/03/31 01:22:53;;;;;;;22.60;12.13;;;;;;;;;;5024251;28;20045;-78
2021/03/31 01:25:29;;;;;;;21.88;13.10;;;;;;;;;;5016683;28;20056;-78
2021/03/31 01:28:05;;;;;;;19.98;12.68;;;;;;;;;;5019778;28;20149;-78
2021/03/31 01:30:45;;;;;;;25.83;14.45;;;;;;;;;;5019697;28;20041;-77
2021/03/31 01:33:23;;;;;;;20.95;12.40;;;;;;;;;;5022832;28;20721;-78
2021/03/31 01:35:52;;;;;;;24.60;13.45;;;;;;;;;;5017852;28;20062;-78
2021/03/31 01:38:21;;;;;;;24.02;13.23;;;;;;;;;;5020233;28;20037;-78
2021/03/31 01:40:48;;;;;;;32.35;14.65;;;;;;;;;;5022104;28;20151;-78
2021/03/31 01:43:16;;;;;;;23.92;13.93;;;;;;;;;;5023703;28;20062;-78
2021/03/31 01:45:47;;;;;;;25.40;15.05;;;;;;;;;;5017020;28;20439;-77
2021/03/31 01:48:17;;;;;;;25.23;14.10;;;;;;;;;;5020904;28;20033;-78
2021/03/31 01:50:46;;;;;;;24.65;13.50;;;;;;;;;;5018790;28;20042;-78
2021/03/31 01:53:12;;;;;;;22.50;14.02;;;;;;;;;;5020633;28;20566;-78
2021/03/31 01:55:39;;;;;;;25.80;15.00;;;;;;;;;;5019556;28;20498;-78
2021/03/31 01:58:06;;;;;;;25.52;13.32;;;;;;;;;;5021598;28;20034;-78
2021/03/31 02:00:33;;;;;;;25.65;13.95;;;;;;;;;;5023227;28;20050;-78
2021/03/31 02:03:01;;;;;;;27.17;15.60;;;;;;;;;;5021266;28;20053;-77
2021/03/31 02:05:28;;;;;;;28.35;15.57;;;;;;;;;;5019834;28;20504;-78
2021/03/31 02:07:54;;;;;;;24.77;15.73;;;;;;;;;;5014880;28;20042;-78
2021/03/31 02:10:22;;;;;;;24.63;15.20;;;;;;;;;;5018768;28;20116;-78
2021/03/31 02:12:49;;;;;;;24.40;14.27;;;;;;;;;;5021774;28;20045;-78
2021/03/31 02:15:18;;;;;;;27.50;15.82;;;;;;;;;;5022517;28;20104;-78
2021/03/31 02:17:46;;;;;;;28.30;15.35;;;;;;;;;;5020828;28;20112;-78
2021/03/31 02:20:16;;;;;;;33.33;17.15;;;;;;;;;;5022906;28;20060;-78
2021/03/31 02:22:43;;;;;;;28.52;17.15;;;;;;;;;;5026386;28;20037;-78
2021/03/31 02:25:11;;;;;;;25.65;16.10;;;;;;;;;;5025742;28;20044;-78
2021/03/31 02:27:38;;;;;;;31.65;17.35;;;;;;;;;;5023499;28;20038;-78
2021/03/31 02:30:06;;;;;;;22.33;15.43;;;;;;;;;;5025008;28;20037;-78
2021/03/31 02:32:32;;;;;;;25.35;15.63;;;;;;;;;;5025740;28;20084;-78
2021/03/31 02:34:59;;;;;;;28.30;16.40;;;;;;;;;;5024013;28;20476;-78
2021/03/31 02:37:25;;;;;;;25.98;16.08;;;;;;;;;;5022396;28;20049;-78
2021/03/31 02:39:52;;;;;;;31.98;17.15;;;;;;;;;;5019377;28;20045;-78
2021/03/31 02:42:21;;;;;;;26.77;17.17;;;;;;;;;;5018819;28;20493;-78
2021/03/31 02:44:48;;;;;;;27.27;16.52;;;;;;;;;;5022126;28;20038;-78
2021/03/31 02:47:16;;;;;;;26.45;15.52;;;;;;;;;;5019874;28;20088;-78
2021/03/31 02:49:43;;;;;;;23.52;14.02;;;;;;;;;;5019848;28;20076;-78
2021/03/31 02:52:11;;;;;;;24.38;15.10;;;;;;;;;;5018046;28;20053;-78
2021/03/31 02:54:37;;;;;;;23.25;13.57;;;;;;;;;;5023808;28;20042;-77
2021/03/31 02:57:04;;;;;;;24.92;14.20;;;;;;;;;;5018292;28;20045;-78
2021/03/31 02:59:31;;;;;;;23.13;14.95;;;;;;;;;;5019130;28;20128;-78
2021/03/31 03:01:57;;;;;;;26.83;15.00;;;;;;;;;;5020288;28;20460;-77
2021/03/31 03:04:24;;;;;;;25.88;16.13;;;;;;;;;;5023107;28;20041;-78
2021/03/31 03:06:50;;;;;;;27.98;16.83;;;;;;;;;;5020471;28;20397;-78
2021/03/31 03:09:17;;;;;;;27.35;16.13;;;;;;;;;;5017559;28;20481;-78
2021/03/31 03:11:43;;;;;;;28.35;16.67;;;;;;;;;;5018741;28;20117;-78
2021/03/31 03:14:10;;;;;;;31.10;16.92;;;;;;;;;;5019266;28;20038;-78
2021/03/31 03:16:36;;;;;;;27.52;15.95;;;;;;;;;;5019772;28;20048;-78
2021/03/31 03:19:02;;;;;;;29.60;18.40;;;;;;;;;;5024661;28;20053;-78
2021/03/31 03:21:29;;;;;;;26.02;16.83;;;;;;;;;;5021402;28;20037;-77
2021/03/31 03:23:56;;;;;;;28.13;17.45;;;;;;;;;;5018055;28;20111;-78
2021/03/31 03:26:23;;;;;;;28.75;17.13;;;;;;;;;;5027334;28;20429;-78
2021/03/31 03:28:50;;;;;;;26.65;16.98;;;;;;;;;;5026350;28;20050;-78
2021/03/31 03:31:16;;;;;;;29.85;18.17;;;;;;;;;;5018884;28;20557;-78
2021/03/31 03:33:43;;;;;;;29.15;16.20;;;;;;;;;;5020528;28;20443;-78
2021/03/31 03:36:11;;;;;;;31.65;17.95;;;;;;;;;;5022960;28;20103;-78
2021/03/31 03:38:38;;;;;;;26.73;17.40;;;;;;;;;;5013777;28;20045;-77
2021/03/31 03:41:06;;;;;;;33.60;16.98;;;;;;;;;;5024748;28;20396;-77
2021/03/31 03:43:33;;;;;;;30.30;16.00;;;;;;;;;;5022580;28;20154;-78
2021/03/31 03:46:00;;;;;;;29.92;17.25;;;;;;;;;;5021902;28;20041;-78
2021/03/31 03:48:26;;;;;;;30.23;17.65;;;;;;;;;;5026704;28;20052;-77
2021/03/31 03:50:53;;;;;;;30.20;16.73;;;;;;;;;;5023185;28;20193;-78
2021/03/31 03:53:20;;;;;;;28.88;17.98;;;;;;;;;;5019032;28;20449;-78
2021/03/31 03:55:46;;;;;;;28.05;16.88;;;;;;;;;;5025748;28;20074;-78
2021/03/31 03:58:13;;;;;;;27.65;17.35;;;;;;;;;;5022764;28;20088;-77
2021/03/31 04:00:39;;;;;;;28.05;17.33;;;;;;;;;;5017608;28;20115;-78
2021/03/31 04:03:05;;;;;;;33.58;16.17;;;;;;;;;;5020943;28;20120;-78
2021/03/31 04:05:32;;;;;;;29.90;15.63;;;;;;;;;;5021592;28;20045;-78
2021/03/31 04:07:58;;;;;;;33.00;17.73;;;;;;;;;;5020758;28;20137;-78
2021/03/31 04:10:26;;;;;;;29.88;18.13;;;;;;;;;;5026842;28;20132;-78
2021/03/31 04:12:53;;;;;;;34.53;18.98;;;;;;;;;;5027503;28;20044;-78
2021/03/31 04:15:20;;;;;;;35.65;19.30;;;;;;;;;;5019655;28;20306;-78
2021/03/31 04:17:47;;;;;;;35.70;19.10;;;;;;;;;;5022024;28;20128;-78
2021/03/31 04:20:15;;;;;;;32.97;18.75;;;;;;;;;;5025508;28;20050;-77
2021/03/31 04:22:42;;;;;;;37.97;18.25;;;;;;;;;;5025183;28;20055;-78
2021/03/31 04:25:10;;;;;;;30.02;18.13;;;;;;;;;;5021732;28;20045;-78
2021/03/31 04:27:37;;;;;;;29.25;17.65;;;;;;;;;;5022169;28;20042;-78
2021/03/31 04:30:05;;;;;;;36.05;19.23;;;;;;;;;;5024872;28;20053;-78
2021/03/31 04:32:32;;;;;;;34.55;17.88;;;;;;;;;;5023617;28;20081;-77
2021/03/31 04:35:00;;;;;;;33.47;18.27;;;;;;;;;;5026218;28;20043;-78
2021/03/31 04:37:26;;;;;;;30.20;19.00;;;;;;;;;;5020993;28;20345;-77
2021/03/31 04:39:53;;;;;;;29.15;17.95;;;;;;;;;;5020936;28;20120;-77
2021/03/31 04:42:19;;;;;;;28.65;17.80;;;;;;;;;;5022790;28;20062;-78
2021/03/31 04:44:45;;;;;;;36.53;19.40;;;;;;;;;;5019271;28;20047;-76
2021/03/31 04:47:12;;;;;;;39.47;18.48;;;;;;;;;;5015295;28;20073;-75
2021/03/31 04:49:38;;;;;;;31.45;20.10;;;;;;;;;;5026580;28;20053;-75
2021/03/31 04:52:04;;;;;;;33.42;20.50;;;;;;;;;;5024708;28;20465;-74
2021/03/31 04:54:31;;;;;;;36.65;20.77;;;;;;;;;;5023534;28;20477;-78
2021/03/31 04:56:58;;;;;;;33.30;20.33;;;;;;;;;;5016084;28;20528;-77
2021/03/31 04:59:24;;;;;;;37.53;21.13;;;;;;;;;;5026486;28;20037;-77
2021/03/31 05:01:50;;;;;;;37.92;21.77;;;;;;;;;;5023557;28;20068;-77
2021/03/31 05:04:16;;;;;;;38.28;20.55;;;;;;;;;;5017881;28;20050;-78
2021/03/31 05:06:43;;;;;;;35.17;20.02;;;;;;;;;;5018766;28;20046;-78
2021/03/31 05:09:09;;;;;;;33.47;21.00;;;;;;;;;;5016307;28;20121;-78
2021/03/31 05:11:36;;;;;;;33.42;19.35;;;;;;;;;;5011477;28;20152;-78
2021/03/31 05:14:02;;;;;;;37.15;21.98;;;;;;;;;;5016555;28;20121;-77
2021/03/31 05:16:28;;;;;;;37.95;20.90;;;;;;;;;;5017816;28;20056;-77
2021/03/31 05:18:55;;;;;;;38.53;21.55;;;;;;;;;;5018199;28;20049;-78
2021/03/31 05:21:21;;;;;;;39.92;22.02;;;;;;;;;;5025893;28;20060;-79
2021/03/31 05:23:47;;;;;;;41.72;23.05;;;;;;;;;;5017412;28;20034;-78
2021/03/31 05:26:14;;;;;;;39.20;22.10;;;;;;;;;;5018065;28;22157;-82
2021/03/31 05:28:40;;;;;;;35.85;21.30;;;;;;;;;;5020872;28;20096;-79
2021/03/31 05:31:07;;;;;;;34.03;21.23;;;;;;;;;;5019652;28;20091;-76
2021/03/31 05:33:33;;;;;;;34.30;20.30;;;;;;;;;;5029947;28;20042;-77
2021/03/31 05:35:59;;;;;;;36.53;21.85;;;;;;;;;;5024471;28;20056;-78
2021/03/31 05:38:26;;;;;;;38.17;21.92;;;;;;;;;;5028203;28;20045;-77
2021/03/31 05:40:52;;;;;;;35.40;21.17;;;;;;;;;;5025774;28;20045;-77
2021/03/31 05:43:18;;;;;;;42.97;22.55;;;;;;;;;;5029167;28;20109;-77
2021/03/31 05:45:46;;;;;;;35.95;22.08;;;;;;;;;;5031902;28;20044;-77
2021/03/31 05:48:12;;;;;;;35.47;20.88;;;;;;;;;;5032664;28;20041;-76
2021/03/31 05:50:39;;;;;;;35.28;21.60;;;;;;;;;;5033135;28;20045;-76
2021/03/31 05:53:05;;;;;;;40.90;21.85;;;;;;;;;;5033943;28;20045;-77
2021/03/31 05:55:32;;;;;;;45.33;22.33;;;;;;;;;;5033767;28;20392;-77
2021/03/31 05:57:58;;;;;;;37.53;21.88;;;;;;;;;;5033205;28;20397;-76
2021/03/31 06:00:25;;;;;;;38.63;21.80;;;;;;;;;;5033684;28;20461;-74
2021/03/31 06:02:51;;;;;;;37.00;22.88;;;;;;;;;;5033610;28;20052;-75
2021/03/31 06:05:19;;;;;;;35.17;22.10;;;;;;;;;;5032910;28;20366;-76
2021/03/31 06:07:46;;;;;;;36.20;22.02;;;;;;;;;;5033385;28;20455;-76
2021/03/31 06:10:14;;;;;;;35.55;21.60;;;;;;;;;;5031322;28;20056;-76
2021/03/31 06:12:42;;;;;;;36.05;22.48;;;;;;;;;;5017239;28;20393;-76
2021/03/31 06:15:11;;;;;;;37.60;22.58;;;;;;;;;;5033384;28;20077;-76
2021/03/31 06:17:45;;;;;;;32.92;21.38;;;;;;;;;;5026486;28;20042;-76
2021/03/31 06:20:12;;;;;;;36.30;22.02;;;;;;;;;;5030300;28;20485;-76
2021/03/31 06:22:54;;;;;;;34.70;21.73;;;;;;;;;;5018810;28;20041;-76
2021/03/31 06:25:24;;;;;;;39.72;22.52;;;;;;;;;;5015992;28;20061;-76
2021/03/31 06:27:52;;;;;;;33.20;21.70;;;;;;;;;;5019055;28;20046;-76
2021/03/31 06:30:22;;;;;;;39.47;22.90;;;;;;;;;;5018728;28;20081;-76
2021/03/31 06:32:50;;;;;;;41.30;23.23;;;;;;;;;;5016797;28;20474;-76
2021/03/31 06:35:19;;;;;;;43.10;24.40;;;;;;;;;;5016803;28;20046;-76
2021/03/31 06:37:45;;;;;;;37.08;23.05;;;;;;;;;;5031187;28;20398;-76
2021/03/31 06:40:29;;;;;;;40.22;23.45;;;;;;;;;;5032647;28;20068;-76
2021/03/31 06:43:07;;;;;;;37.75;22.88;;;;;;;;;;5025175;28;20053;-76
2021/03/31 06:46:01;;;;;;;34.65;22.13;;;;;;;;;;5017285;28;20115;-76
2021/03/31 06:48:28;;;;;;;37.22;22.88;;;;;;;;;;5012867;28;20033;-76
2021/03/31 06:50:54;;;;;;;38.05;22.73;;;;;;;;;;5016431;28;20492;-76
2021/03/31 06:53:27;;;;;;;40.80;23.10;;;;;;;;;;5014396;28;20488;-76
2021/03/31 06:56:03;;;;;;;40.28;24.52;;;;;;;;;;5013615;28;20119;-77
2021/03/31 06:58:30;;;;;;;36.22;24.10;;;;;;;;;;5024687;28;20313;-76
2021/03/31 07:00:56;;;;;;;38.13;21.95;;;;;;;;;;5020560;28;20099;-76
2021/03/31 07:03:22;;;;;;;37.78;22.75;;;;;;;;;;5013819;28;20056;-74
2021/03/31 07:05:49;;;;;;;35.58;23.48;;;;;;;;;;5012127;28;20054;-74
2021/03/31 07:08:16;;;;;;;36.58;23.08;;;;;;;;;;5016311;28;20034;-74
2021/03/31 07:10:50;;;;;;;38.63;23.50;;;;;;;;;;5013622;28;20045;-74
2021/03/31 07:13:27;;;;;;;38.67;25.02;;;;;;;;;;5015812;28;20126;-74
2021/03/31 07:15:54;;;;;;;40.45;24.15;;;;;;;;;;5014420;28;20065;-71
2021/03/31 07:18:22;;;;;;;34.67;22.33;;;;;;;;;;5016605;28;20080;-71
2021/03/31 07:20:49;;;;;;;36.63;23.10;;;;;;;;;;5022995;28;20558;-70
2021/03/31 07:23:16;;;;;;;43.75;25.52;;;;;;;;;;5018048;28;20064;-70
2021/03/31 07:25:42;;;;;;;40.83;25.77;;;;;;;;;;5013283;28;20117;-70
2021/03/31 07:28:10;;;;;;;39.97;25.45;;;;;;;;;;5014296;28;20049;-71
2021/03/31 07:30:36;;;;;;;42.38;25.88;;;;;;;;;;5014287;28;20038;-71
2021/03/31 07:33:10;;;;;;;38.80;24.05;;;;;;;;;;5013747;28;20034;-70
2021/03/31 07:35:36;;;;;;;;;;;;;;;;;;5025921;28;20252;-70
2021/03/31 07:38:04;;;;;;;39.67;22.88;;;;;;;;;;5014237;28;19921;-74
2021/03/31 07:40:32;;;;;;;43.22;25.48;;;;;;;;;;5014627;28;20041;-77
2021/03/31 07:43:05;;;;;;;40.85;25.08;;;;;;;;;;5025339;28;20053;-77
2021/03/31 07:45:35;;;;;;;38.13;22.08;;;;;;;;;;5020828;28;20141;-76
2021/03/31 07:48:02;;;;;;;37.72;23.45;;;;;;;;;;5013364;28;20095;-77
2021/03/31 07:50:29;;;;;;;40.28;23.45;;;;;;;;;;5024347;28;20049;-77
2021/03/31 07:52:57;;;;;;;39.22;22.17;;;;;;;;;;5014809;28;20042;-77
2021/03/31 07:55:31;;;;;;;35.25;22.15;;;;;;;;;;5012847;28;20050;-77
2021/03/31 07:58:16;;;;;;;43.47;22.83;;;;;;;;;;5017451;28;20090;-77
2021/03/31 08:00:52;;;;;;;38.45;22.83;;;;;;;;;;5016002;28;21683;-77
2021/03/31 08:03:19;;;;;;;34.38;22.63;;;;;;;;;;5011345;28;20375;-77
2021/03/31 08:06:03;;;;;;;40.90;22.63;;;;;;;;;;5012014;28;20054;-77
2021/03/31 08:08:30;;;;;;;39.28;23.17;;;;;;;;;;5014695;28;20049;-77
2021/03/31 08:10:56;;;;;;;39.80;23.50;;;;;;;;;;5014449;28;20037;-77
2021/03/31 08:13:31;;;;;;;33.30;21.38;;;;;;;;;;5015007;28;20076;-77
2021/03/31 08:15:59;;;;;;;39.33;24.08;;;;;;;;;;5015813;28;20412;-77
2021/03/31 08:18:26;;;;;;;37.63;24.15;;;;;;;;;;5017997;28;20045;-77
2021/03/31 08:20:53;;;;;;;35.40;22.92;;;;;;;;;;5018413;28;20080;-77
2021/03/31 08:23:44;;;;;;;35.38;22.42;;;;;;;;;;5017288;28;20444;-77
2021/03/31 08:26:30;;;;;;;35.75;22.17;;;;;;;;;;5014558;28;20046;-77
2021/03/31 08:28:57;;;;;;;38.55;23.48;;;;;;;;;;5023278;28;20450;-77
2021/03/31 08:31:25;;;;;;;34.70;22.63;;;;;;;;;;5015272;28;20042;-77
2021/03/31 08:33:51;;;;;;;42.83;24.02;;;;;;;;;;5028118;28;20058;-77
2021/03/31 08:36:17;;;;;;;38.60;23.08;;;;;;;;;;5029252;28;20041;-77
2021/03/31 08:38:49;;;;;;;39.28;24.42;;;;;;;;;;5021453;28;20037;-77
2021/03/31 08:41:16;;;;;;;40.03;24.17;;;;;;;;;;5013553;28;20046;-77
2021/03/31 08:43:44;;;;;;;37.90;22.85;;;;;;;;;;5010400;28;20102;-77
2021/03/31 08:46:12;;;;;;;40.88;24.75;;;;;;;;;;5013376;28;20058;-73
2021/03/31 08:48:41;;;;;;;43.20;22.48;;;;;;;;;;5012211;28;20096;-73
2021/03/31 08:51:08;;;;;;;39.92;23.35;;;;;;;;;;5014810;28;20063;-73
2021/03/31 08:53:34;;;;;;;37.72;23.75;;;;;;;;;;5016605;28;20041;-73
2021/03/31 08:56:01;;;;;;;42.90;24.00;;;;;;;;;;5015931;28;20045;-73
2021/03/31 08:58:28;;;;;;;39.45;23.05;;;;;;;;;;5010801;28;20069;-73
2021/03/31 09:00:55;;;;;;;37.25;23.65;;;;;;;;;;5015737;28;20052;-73
2021/03/31 09:03:22;;;;;;;36.78;22.90;;;;;;;;;;5011926;28;20049;-73
2021/03/31 09:05:58;;;;;;;34.85;22.77;;;;;;;;;;5011467;28;20108;-73
2021/03/31 09:08:25;;;;;;;34.42;23.30;;;;;;;;;;5013323;28;20089;-73
2021/03/31 09:10:53;;;;;;;38.85;22.15;;;;;;;;;;5012039;28;20481;-73
2021/03/31 09:13:23;;;;;;;37.60;24.30;;;;;;;;;;5017658;28;20034;-73
2021/03/31 09:15:54;;;;;;;35.00;22.50;;;;;;;;;;5013449;28;20042;-73
2021/03/31 09:18:21;;;;;;;35.65;22.25;;;;;;;;;;5012103;28;20105;-73
2021/03/31 09:20:47;;;;;;;35.55;22.80;;;;;;;;;;5015293;28;20567;-73
2021/03/31 09:23:22;;;;;;;36.67;24.20;;;;;;;;;;5016374;28;20041;-73
2021/03/31 09:25:56;;;;;;;35.92;22.75;;;;;;;;;;5011480;28;20057;-72
2021/03/31 09:28:23;;;;;;;38.58;23.33;;;;;;;;;;5010747;28;20441;-73
2021/03/31 09:30:52;;;;;;;35.50;24.23;;;;;;;;;;5011246;28;20486;-77
2021/03/31 09:33:26;;;;;;;37.53;24.35;;;;;;;;;;5011404;28;20088;-77
2021/03/31 09:35:52;;;;;;;;;;;;;;;;;;5015452;28;20064;-78
2021/03/31 09:38:25;;;;;;;37.17;25.08;;;;;;;;;;5019984;28;20299;-78
2021/03/31 09:41:02;;;;;;;41.35;26.60;;;;;;;;;;5012383;28;20046;-77
2021/03/31 09:43:30;;;;;;;36.25;25.27;;;;;;;;;;5013518;28;20130;-77
2021/03/31 09:45:56;;;;;;;38.65;25.70;;;;;;;;;;5015115;28;20192;-78
2021/03/31 09:48:23;;;;;;;37.30;25.58;;;;;;;;;;5012390;28;20038;-78
2021/03/31 09:50:49;;;;;;;34.92;23.95;;;;;;;;;;5018553;28;20056;-78
2021/03/31 09:53:16;;;;;;;38.40;25.88;;;;;;;;;;5013333;28;20137;-86
2021/03/31 09:55:43;;;;;;;36.75;23.92;;;;;;;;;;5025744;28;20046;-77
2021/03/31 09:58:09;;;;;;;37.72;26.02;;;;;;;;;;5012740;28;20440;-77
2021/03/31 10:00:38;;;;;;;39.25;26.77;;;;;;;;;;5022504;28;20141;-78
2021/03/31 10:03:05;;;;;;;35.85;23.98;;;;;;;;;;5010916;28;20137;-77
2021/03/31 10:05:33;;;;;;;35.55;23.60;;;;;;;;;;5020509;28;20081;-77
2021/03/31 10:08:06;;;;;;;38.17;24.45;;;;;;;;;;5013776;28;20095;-78
2021/03/31 10:10:39;;;;;;;37.60;25.80;;;;;;;;;;5009681;28;20092;-78
2021/03/31 10:13:05;;;;;;;41.80;25.33;;;;;;;;;;5015857;28;20159;-78
2021/03/31 10:15:32;;;;;;;43.38;26.50;;;;;;;;;;5012195;28;20036;-78
2021/03/31 10:17:58;;;;;;;36.50;24.48;;;;;;;;;;5009644;28;20137;-78
2021/03/31 10:20:29;;;;;;;40.08;26.58;;;;;;;;;;5012505;28;20046;-78
2021/03/31 10:22:56;;;;;;;41.70;26.48;;;;;;;;;;5014066;28;20050;-78
2021/03/31 10:25:24;;;;;;;39.60;26.58;;;;;;;;;;5020748;28;20481;-77
2021/03/31 10:27:51;;;;;;;42.13;26.15;;;;;;;;;;5012203;28;20493;-78
2021/03/31 10:30:24;;;;;;;40.00;26.63;;;;;;;;;;5012412;28;20038;-78
2021/03/31 10:32:52;;;;;;;40.72;26.40;;;;;;;;;;5013749;28;20050;-78
2021/03/31 10:35:38;;;;;;;38.40;26.30;;;;;;;;;;5018845;28;20105;-78
2021/03/31 10:38:07;;;;;;;36.15;24.95;;;;;;;;;;5031114;28;20521;-78
2021/03/31 10:41:11;;;;;;;37.28;25.83;;;;;;;;;;5014694;28;20044;-78
2021/03/31 10:49:26;;;;;;;43.22;27.95;;;;;;;;;;5017839;28;20115;-78
2021/03/31 10:51:58;;;;;;;45.75;29.42;;;;;;;;;;5029759;28;20041;-78
2021/03/31 10:54:27;;;;;;;43.20;30.73;;;;;;;;;;5015949;28;20033;-78
2021/03/31 10:56:55;;;;;;;43.38;29.90;;;;;;;;;;4999826;28;20054;-78
2021/03/31 10:59:21;;;;;;;45.33;29.65;;;;;;;;;;5015606;28;20096;-78
2021/03/31 11:01:48;;;;;;;42.13;28.77;;;;;;;;;;5013790;28;20044;-78
2021/03/31 11:04:15;;;;;;;45.28;30.02;;;;;;;;;;5019201;28;20041;-78
2021/03/31 11:06:41;;;;;;;45.10;31.35;;;;;;;;;;5013475;28;20060;-78
2021/03/31 11:09:07;;;;;;;44.85;30.17;;;;;;;;;;5014406;28;20057;-75
2021/03/31 11:11:34;;;;;;;42.83;28.92;;;;;;;;;;5016934;28;20069;-78
2021/03/31 11:14:00;;;;;;;46.67;30.50;;;;;;;;;;5014846;28;20052;-78
2021/03/31 11:16:27;;;;;;;41.72;30.45;;;;;;;;;;5015123;28;20069;-78
2021/03/31 11:19:40;;;;;;;39.17;28.70;;;;;;;;;;5028243;28;20046;-78
2021/03/31 11:27:57;;;;;;;46.90;32.22;;;;;;;;;;5022428;28;20058;-79
2021/03/31 11:30:43;;;;;;;48.38;31.92;;;;;;;;;;5020260;28;20046;-78
2021/03/31 11:33:29;;;;;;;49.50;32.78;;;;;;;;;;5015847;28;20128;-79
2021/03/31 11:35:55;;;;;;;46.80;33.55;;;;;;;;;;5017406;28;20105;-79
2021/03/31 11:38:44;;;;;;;55.13;37.60;;;;;;;;;;5013621;28;20045;-79
2021/03/31 11:41:10;;;;;;;48.40;34.08;;;;;;;;;;5022220;28;20391;-79
2021/03/31 11:43:37;;;;;;;48.38;35.20;;;;;;;;;;5018985;28;20050;-79
2021/03/31 11:46:23;;;;;;;48.00;35.38;;;;;;;;;;5025286;28;20114;-79
2021/03/31 11:48:49;;;;;;;52.72;36.42;;;;;;;;;;5016220;28;20054;-79
2021/03/31 11:51:35;;;;;;;51.00;36.03;;;;;;;;;;5023160;28;20049;-79
2021/03/31 11:54:02;;;;;;;55.33;37.33;;;;;;;;;;5015147;28;20054;-79
2021/03/31 11:56:28;;;;;;;50.85;36.05;;;;;;;;;;5015345;28;20127;-79
2021/03/31 11:58:56;;;;;;;49.90;35.83;;;;;;;;;;5014610;28;20042;-79
2021/03/31 12:01:24;;;;;;;48.47;34.92;;;;;;;;;;5012430;28;20424;-79
2021/03/31 12:03:51;;;;;;;49.17;36.38;;;;;;;;;;5012562;28;20153;-79
2021/03/31 12:06:17;;;;;;;50.67;36.22;;;;;;;;;;5016296;28;20053;-79
2021/03/31 12:08:47;;;;;;;55.65;35.50;;;;;;;;;;5011388;28;20079;-79
2021/03/31 12:11:34;;;;;;;54.70;37.85;;;;;;;;;;5012441;28;20052;-79
2021/03/31 12:14:00;;;;;;;50.95;35.88;;;;;;;;;;5011828;28;20049;-79
2021/03/31 12:16:26;;;;;;;52.17;37.33;;;;;;;;;;5015434;28;20033;-79
2021/03/31 12:18:53;;;;;;;51.65;36.72;;;;;;;;;;5012009;28;20050;-79
2021/03/31 12:21:19;;;;;;;52.50;35.78;;;;;;;;;;5013697;28;20034;-79
2021/03/31 12:23:45;;;;;;;49.35;33.45;;;;;;;;;;5011438;28;20045;-79
2021/03/31 12:26:31;;;;;;;46.97;32.67;;;;;;;;;;5002906;28;20107;-80
2021/03/31 12:28:59;;;;;;;38.92;29.83;;;;;;;;;;5013238;28;20041;-79
2021/03/31 12:31:25;;;;;;;49.88;35.42;;;;;;;;;;5019378;28;20091;-76
2021/03/31 12:33:52;;;;;;;49.92;34.10;;;;;;;;;;5024007;28;20418;-77
2021/03/31 12:36:38;;;;;;;45.65;34.10;;;;;;;;;;5012417;28;20124;-73
2021/03/31 12:39:05;;;;;;;48.45;34.50;;;;;;;;;;5021957;28;20038;-79
2021/03/31 12:41:33;;;;;;;45.67;32.20;;;;;;;;;;5019681;28;20101;-79
2021/03/31 12:44:20;;;;;;;49.33;32.25;;;;;;;;;;5017938;28;20046;-79
2021/03/31 12:46:46;;;;;;;45.53;31.92;;;;;;;;;;5024161;28;20045;-79
2021/03/31 12:49:12;;;;;;;43.42;32.10;;;;;;;;;;5023509;28;20045;-79
2021/03/31 12:51:42;;;;;;;47.50;32.45;;;;;;;;;;5016043;28;20038;-79
2021/03/31 12:54:14;;;;;;;50.13;34.95;;;;;;;;;;5019557;28;20741;-79
2021/03/31 12:56:41;;;;;;;49.92;31.77;;;;;;;;;;5017709;28;20120;-79
2021/03/31 12:59:08;;;;;;;44.58;32.45;;;;;;;;;;5014651;28;20045;-79
2021/03/31 13:01:36;;;;;;;44.15;31.92;;;;;;;;;;5022304;28;20037;-79
2021/03/31 13:04:03;;;;;;;49.53;31.98;;;;;;;;;;5015942;28;20052;-79
2021/03/31 13:06:32;;;;;;;44.67;31.77;;;;;;;;;;5016012;28;20041;-79
2021/03/31 13:09:18;;;;;;;51.20;32.67;;;;;;;;;;5026828;28;20197;-79
2021/03/31 13:11:45;;;;;;;47.05;32.15;;;;;;;;;;5016122;28;20049;-79
2021/03/31 13:15:10;;;;;;;46.70;33.15;;;;;;;;;;5001845;28;20571;-79
2021/03/31 13:23:18;;;;;;;50.28;34.88;;;;;;;;;;5021272;28;20046;-79
2021/03/31 13:26:00;;;;;;;49.28;34.08;;;;;;;;;;5019448;28;20485;-79
2021/03/31 13:28:45;;;;;;;49.20;33.35;;;;;;;;;;5024381;28;20413;-79
2021/03/31 13:31:40;;;;;;;47.40;34.42;;;;;;;;;;5016991;28;20396;-79
2021/03/31 13:34:30;;;;;;;49.75;33.13;;;;;;;;;;5017386;28;20048;-79
2021/03/31 13:37:12;;;;;;;44.95;31.60;;;;;;;;;;5019153;28;20041;-79
2021/03/31 13:39:44;;;;;;;46.65;32.53;;;;;;;;;;5016323;28;20458;-79
2021/03/31 13:42:31;;;;;;;44.60;31.20;;;;;;;;;;5019731;28;20046;-79
2021/03/31 13:45:17;;;;;;;47.13;31.60;;;;;;;;;;5013008;28;20042;-79
2021/03/31 13:47:57;;;;;;;43.58;30.67;;;;;;;;;;5020368;28;20485;-76
2021/03/31 13:50:24;;;;;;;44.28;29.63;;;;;;;;;;5013086;28;20117;-78
2021/03/31 13:53:16;;;;;;;47.05;32.22;;;;;;;;;;4994164;28;20068;-79
2021/03/31 13:55:44;;;;;;;50.03;33.20;;;;;;;;;;5013213;28;20080;-79
2021/03/31 13:58:11;;;;;;;47.30;30.05;;;;;;;;;;5021465;28;20045;-79
2021/03/31 14:00:37;;;;;;;47.33;30.67;;;;;;;;;;5015412;28;20029;-79
2021/03/31 14:03:04;;;;;;;41.80;28.50;;;;;;;;;;5014405;28;20477;-79
2021/03/31 14:05:31;;;;;;;43.17;29.70;;;;;;;;;;5015492;28;20121;-79
2021/03/31 14:08:17;;;;;;;41.78;30.25;;;;;;;;;;5014433;28;20064;-79
2021/03/31 14:10:43;;;;;;;49.25;33.70;;;;;;;;;;5022747;28;20041;-79
2021/03/31 14:13:10;;;;;;;47.80;32.35;;;;;;;;;;5022062;28;20473;-78
2021/03/31 14:15:36;;;;;;;48.75;32.70;;;;;;;;;;5025072;28;20053;-79
2021/03/31 14:18:03;;;;;;;53.33;33.35;;;;;;;;;;5024609;28;20208;-79
2021/03/31 14:20:49;;;;;;;46.75;32.80;;;;;;;;;;5025266;28;20531;-79
2021/03/31 14:23:16;;;;;;;43.75;29.55;;;;;;;;;;5026787;28;20100;-79
2021/03/31 14:26:02;;;;;;;38.42;24.08;;;;;;;;;;5018360;28;20181;-79
2021/03/31 14:28:48;;;;;;;38.70;24.25;;;;;;;;;;5015678;28;20140;-79
2021/03/31 14:31:35;;;;;;;39.00;24.92;;;;;;;;;;5017068;28;20037;-79
2021/03/31 14:34:02;;;;;;;39.55;26.40;;;;;;;;;;5017437;28;20440;-79
2021/03/31 14:36:48;;;;;;;34.45;24.60;;;;;;;;;;5016308;28;20151;-79
2021/03/31 14:39:35;;;;;;;37.53;24.92;;;;;;;;;;5013976;28;20083;-79
2021/03/31 14:42:02;;;;;;;42.50;26.23;;;;;;;;;;5015945;28;20450;-79
2021/03/31 14:44:28;;;;;;;37.95;24.58;;;;;;;;;;5015643;28;20128;-78
2021/03/31 14:47:14;;;;;;;42.13;26.13;;;;;;;;;;5027592;28;20559;-79
2021/03/31 14:50:02;;;;;;;37.88;24.77;;;;;;;;;;5010716;28;20060;-77
2021/03/31 15:01:21;;;;;;;53.22;39.17;;;;;;;;;;5015017;28;20124;-80